sensor_id;sensor_type;location;lat;lon;timestamp;temperature;humidity
7654;DHT22;3869;48.406;10.774;2023-04-25T00:01:34;7.40;99.90
7654;DHT22;3869;48.406;10.774;2023-04-25T00:04:02;7.30;99.90
7654;DHT22;3869;48.406;10.774;2023-04-25T00:06:33;7.30;99.90
7654;DHT22;3869;48.406;10.774;2023-04-25T00:09:02;7.30;99.90
7654;DHT22;3869;48.406;10.774;2023-04-25T00:11:34;7.30;99.90
7654;DHT22;3869;48.406;10.774;2023-04-25T00:14:03;7.30;99.90
7654;DHT22;3869;48.406;10.774;2023-04-25T00:16:31;7.30;99.90
7654;DHT22;3869;48.406;10.774;2023-04-25T00:19:02;7.30;99.90
7654;DHT22;3869;48.406;10.774;2023-04-25T00:21:31;7.20;99.90
7654;DHT22;3869;48.406;10.774;2023-04-25T00:23:59;7.30;99.90
7654;DHT22;3869;48.406;10.774;2023-04-25T00:26:27;7.20;99.90
7654;DHT22;3869;48.406;10.774;2023-04-25T00:28:55;7.20;99.90
7654;DHT22;3869;48.406;10.774;2023-04-25T00:31:23;7.20;99.90
7654;DHT22;3869;48.406;10.774;2023-04-25T00:33:51;7.20;99.90
7654;DHT22;3869;48.406;10.774;2023-04-25T00:36:21;7.10;99.90
7654;DHT22;3869;48.406;10.774;2023-04-25T00:38:49;7.10;99.90
7654;DHT22;3869;48.406;10.774;2023-04-25T00:41:17;7.10;99.90
7654;DHT22;3869;48.406;10.774;2023-04-25T00:43:47;7.10;99.90
7654;DHT22;3869;48.406;10.774;2023-04-25T00:46:16;7.10;99.90
7654;DHT22;3869;48.406;10.774;2023-04-25T00:48:44;7.10;99.90
7654;DHT22;3869;48.406;10.774;2023-04-25T00:51:16;7.10;99.90
7654;DHT22;3869;48.406;10.774;2023-04-25T00:53:48;7.10;99.90
7654;DHT22;3869;48.406;10.774;2023-04-25T00:56:18;7.20;99.90
7654;DHT22;3869;48.406;10.774;2023-04-25T00:58:47;7.10;99.90
7654;DHT22;3869;48.406;10.774;2023-04-25T01:01:16;7.10;99.90
7654;DHT22;3869;48.406;10.774;2023-04-25T01:03:46;7.10;99.90
7654;DHT22;3869;48.406;10.774;2023-04-25T01:06:17;7.10;99.90
7654;DHT22;3869;48.406;10.774;2023-04-25T01:08:45;7.10;99.90
7654;DHT22;3869;48.406;10.774;2023-04-25T01:11:14;7.10;99.90
7654;DHT22;3869;48.406;10.774;2023-04-25T01:13:42;7.10;99.90
7654;DHT22;3869;48.406;10.774;2023-04-25T01:16:10;7.10;99.90
7654;DHT22;3869;48.406;10.774;2023-04-25T01:18:38;7.00;99.90
7654;DHT22;3869;48.406;10.774;2023-04-25T01:21:10;7.10;99.90
7654;DHT22;3869;48.406;10.774;2023-04-25T01:23:39;7.10;99.90
7654;DHT22;3869;48.406;10.774;2023-04-25T01:26:09;7.10;99.90
7654;DHT22;3869;48.406;10.774;2023-04-25T01:28:37;7.00;99.90
7654;DHT22;3869;48.406;10.774;2023-04-25T01:31:07;7.00;99.90
7654;DHT22;3869;48.406;10.774;2023-04-25T01:33:36;7.00;99.90
7654;DHT22;3869;48.406;10.774;2023-04-25T01:36:05;6.90;99.90
7654;DHT22;3869;48.406;10.774;2023-04-25T01:38:35;6.90;99.90
7654;DHT22;3869;48.406;10.774;2023-04-25T01:41:03;6.80;99.90
7654;DHT22;3869;48.406;10.774;2023-04-25T01:43:31;6.80;99.90
7654;DHT22;3869;48.406;10.774;2023-04-25T01:45:59;6.80;99.90
7654;DHT22;3869;48.406;10.774;2023-04-25T01:48:27;6.80;99.90
7654;DHT22;3869;48.406;10.774;2023-04-25T01:50:55;6.70;99.90
7654;DHT22;3869;48.406;10.774;2023-04-25T01:53:24;6.70;99.90
7654;DHT22;3869;48.406;10.774;2023-04-25T01:55:54;6.70;99.90
7654;DHT22;3869;48.406;10.774;2023-04-25T01:58:21;6.70;99.90
7654;DHT22;3869;48.406;10.774;2023-04-25T02:00:49;6.70;99.90
7654;DHT22;3869;48.406;10.774;2023-04-25T02:03:17;6.60;99.90
7654;DHT22;3869;48.406;10.774;2023-04-25T02:05:45;6.60;99.90
7654;DHT22;3869;48.406;10.774;2023-04-25T02:08:13;6.60;99.90
7654;DHT22;3869;48.406;10.774;2023-04-25T02:10:42;6.60;99.90
7654;DHT22;3869;48.406;10.774;2023-04-25T02:13:11;6.60;99.90
7654;DHT22;3869;48.406;10.774;2023-04-25T02:15:39;6.70;99.90
7654;DHT22;3869;48.406;10.774;2023-04-25T02:18:07;6.70;99.90
7654;DHT22;3869;48.406;10.774;2023-04-25T02:20:37;6.80;99.90
7654;DHT22;3869;48.406;10.774;2023-04-25T02:23:05;6.80;99.90
7654;DHT22;3869;48.406;10.774;2023-04-25T02:25:32;6.80;99.90
7654;DHT22;3869;48.406;10.774;2023-04-25T02:28:00;6.80;99.90
7654;DHT22;3869;48.406;10.774;2023-04-25T02:30:30;6.80;99.90
7654;DHT22;3869;48.406;10.774;2023-04-25T02:32:58;6.80;99.90
7654;DHT22;3869;48.406;10.774;2023-04-25T02:35:26;6.80;99.90
7654;DHT22;3869;48.406;10.774;2023-04-25T02:37:54;6.90;99.90
7654;DHT22;3869;48.406;10.774;2023-04-25T02:40:22;7.00;99.90
7654;DHT22;3869;48.406;10.774;2023-04-25T02:42:50;7.00;99.90
7654;DHT22;3869;48.406;10.774;2023-04-25T02:45:18;7.10;99.90
7654;DHT22;3869;48.406;10.774;2023-04-25T02:47:47;7.10;99.90
7654;DHT22;3869;48.406;10.774;2023-04-25T02:50:15;7.10;99.90
7654;DHT22;3869;48.406;10.774;2023-04-25T02:52:45;7.20;99.90
7654;DHT22;3869;48.406;10.774;2023-04-25T02:55:13;7.20;99.90
7654;DHT22;3869;48.406;10.774;2023-04-25T02:57:42;7.30;99.90
7654;DHT22;3869;48.406;10.774;2023-04-25T03:00:11;7.30;99.90
7654;DHT22;3869;48.406;10.774;2023-04-25T03:02:40;7.30;99.90
7654;DHT22;3869;48.406;10.774;2023-04-25T03:05:10;7.30;99.90
7654;DHT22;3869;48.406;10.774;2023-04-25T03:07:38;7.40;99.90
7654;DHT22;3869;48.406;10.774;2023-04-25T03:10:07;7.40;99.90
7654;DHT22;3869;48.406;10.774;2023-04-25T03:12:35;7.40;99.90
7654;DHT22;3869;48.406;10.774;2023-04-25T03:15:04;7.40;99.90
7654;DHT22;3869;48.406;10.774;2023-04-25T03:17:32;7.40;99.90
7654;DHT22;3869;48.406;10.774;2023-04-25T03:20:00;7.50;99.90
7654;DHT22;3869;48.406;10.774;2023-04-25T03:22:32;7.50;99.90
7654;DHT22;3869;48.406;10.774;2023-04-25T03:25:00;7.60;99.90
7654;DHT22;3869;48.406;10.774;2023-04-25T03:27:27;7.60;99.90
7654;DHT22;3869;48.406;10.774;2023-04-25T03:29:55;7.60;99.90
7654;DHT22;3869;48.406;10.774;2023-04-25T03:32:24;7.60;99.90
7654;DHT22;3869;48.406;10.774;2023-04-25T03:34:52;7.60;99.90
7654;DHT22;3869;48.406;10.774;2023-04-25T03:37:20;7.60;99.90
7654;DHT22;3869;48.406;10.774;2023-04-25T03:39:49;7.60;99.90
7654;DHT22;3869;48.406;10.774;2023-04-25T03:42:17;7.50;99.90
7654;DHT22;3869;48.406;10.774;2023-04-25T03:44:46;7.50;99.90
7654;DHT22;3869;48.406;10.774;2023-04-25T03:47:14;7.50;99.90
7654;DHT22;3869;48.406;10.774;2023-04-25T03:49:42;7.50;99.90
7654;DHT22;3869;48.406;10.774;2023-04-25T03:52:11;7.50;99.90
7654;DHT22;3869;48.406;10.774;2023-04-25T03:54:39;7.50;99.90
7654;DHT22;3869;48.406;10.774;2023-04-25T03:57:08;7.50;99.90
7654;DHT22;3869;48.406;10.774;2023-04-25T03:59:36;7.50;99.90
7654;DHT22;3869;48.406;10.774;2023-04-25T04:02:04;7.50;99.90
7654;DHT22;3869;48.406;10.774;2023-04-25T04:04:32;7.50;99.90
7654;DHT22;3869;48.406;10.774;2023-04-25T04:07:01;7.50;99.90
7654;DHT22;3869;48.406;10.774;2023-04-25T04:09:28;7.50;99.90
7654;DHT22;3869;48.406;10.774;2023-04-25T04:11:56;7.50;99.90
7654;DHT22;3869;48.406;10.774;2023-04-25T04:14:26;7.50;99.90
7654;DHT22;3869;48.406;10.774;2023-04-25T04:16:53;7.50;99.90
7654;DHT22;3869;48.406;10.774;2023-04-25T04:19:21;7.50;99.90
7654;DHT22;3869;48.406;10.774;2023-04-25T04:21:49;7.50;99.90
7654;DHT22;3869;48.406;10.774;2023-04-25T04:24:17;7.50;99.90
7654;DHT22;3869;48.406;10.774;2023-04-25T04:26:45;7.60;99.90
7654;DHT22;3869;48.406;10.774;2023-04-25T04:29:13;7.50;99.90
7654;DHT22;3869;48.406;10.774;2023-04-25T04:31:49;7.50;99.90
7654;DHT22;3869;48.406;10.774;2023-04-25T04:34:19;7.50;99.90
7654;DHT22;3869;48.406;10.774;2023-04-25T04:36:47;7.60;99.90
7654;DHT22;3869;48.406;10.774;2023-04-25T04:39:15;7.60;99.90
7654;DHT22;3869;48.406;10.774;2023-04-25T04:41:43;7.60;99.90
7654;DHT22;3869;48.406;10.774;2023-04-25T04:44:11;7.60;99.90
7654;DHT22;3869;48.406;10.774;2023-04-25T04:46:41;7.60;99.90
7654;DHT22;3869;48.406;10.774;2023-04-25T04:49:11;7.70;99.90
7654;DHT22;3869;48.406;10.774;2023-04-25T04:51:40;7.70;99.90
7654;DHT22;3869;48.406;10.774;2023-04-25T04:54:11;7.70;99.90
7654;DHT22;3869;48.406;10.774;2023-04-25T04:56:38;7.70;99.90
7654;DHT22;3869;48.406;10.774;2023-04-25T04:59:06;7.70;99.90
7654;DHT22;3869;48.406;10.774;2023-04-25T05:01:34;7.80;99.90
7654;DHT22;3869;48.406;10.774;2023-04-25T05:04:03;7.90;99.90
7654;DHT22;3869;48.406;10.774;2023-04-25T05:06:32;7.90;99.90
7654;DHT22;3869;48.406;10.774;2023-04-25T05:09:00;7.90;99.90
7654;DHT22;3869;48.406;10.774;2023-04-25T05:11:29;7.90;99.90
7654;DHT22;3869;48.406;10.774;2023-04-25T05:13:57;8.00;99.90
7654;DHT22;3869;48.406;10.774;2023-04-25T05:16:25;8.00;99.90
7654;DHT22;3869;48.406;10.774;2023-04-25T05:18:53;8.00;99.90
7654;DHT22;3869;48.406;10.774;2023-04-25T05:21:21;8.10;99.90
7654;DHT22;3869;48.406;10.774;2023-04-25T05:23:50;8.10;99.90
7654;DHT22;3869;48.406;10.774;2023-04-25T05:26:18;8.10;99.90
7654;DHT22;3869;48.406;10.774;2023-04-25T05:28:47;8.20;99.90
7654;DHT22;3869;48.406;10.774;2023-04-25T05:31:15;8.20;99.90
7654;DHT22;3869;48.406;10.774;2023-04-25T05:33:43;8.20;99.90
7654;DHT22;3869;48.406;10.774;2023-04-25T05:36:11;8.30;99.90
7654;DHT22;3869;48.406;10.774;2023-04-25T05:38:38;8.30;99.90
7654;DHT22;3869;48.406;10.774;2023-04-25T05:41:08;8.40;99.90
7654;DHT22;3869;48.406;10.774;2023-04-25T05:43:36;8.40;99.90
7654;DHT22;3869;48.406;10.774;2023-04-25T05:46:04;8.40;99.90
7654;DHT22;3869;48.406;10.774;2023-04-25T05:48:32;8.50;99.90
7654;DHT22;3869;48.406;10.774;2023-04-25T05:51:00;8.50;99.90
7654;DHT22;3869;48.406;10.774;2023-04-25T05:53:28;8.50;99.90
7654;DHT22;3869;48.406;10.774;2023-04-25T05:55:56;8.50;99.90
7654;DHT22;3869;48.406;10.774;2023-04-25T05:58:25;8.50;99.90
7654;DHT22;3869;48.406;10.774;2023-04-25T06:00:53;8.50;99.90
7654;DHT22;3869;48.406;10.774;2023-04-25T06:03:21;8.50;99.90
7654;DHT22;3869;48.406;10.774;2023-04-25T06:05:49;8.60;99.90
7654;DHT22;3869;48.406;10.774;2023-04-25T06:08:17;8.60;99.90
7654;DHT22;3869;48.406;10.774;2023-04-25T06:10:45;8.60;99.90
7654;DHT22;3869;48.406;10.774;2023-04-25T06:13:13;8.70;99.90
7654;DHT22;3869;48.406;10.774;2023-04-25T06:15:43;8.70;99.90
7654;DHT22;3869;48.406;10.774;2023-04-25T06:18:11;8.90;99.90
7654;DHT22;3869;48.406;10.774;2023-04-25T06:20:39;9.10;99.90
7654;DHT22;3869;48.406;10.774;2023-04-25T06:23:07;9.20;99.90
7654;DHT22;3869;48.406;10.774;2023-04-25T06:25:35;9.40;99.90
7654;DHT22;3869;48.406;10.774;2023-04-25T06:28:03;9.50;99.90
7654;DHT22;3869;48.406;10.774;2023-04-25T06:30:31;9.50;99.90
7654;DHT22;3869;48.406;10.774;2023-04-25T06:33:00;9.50;99.90
7654;DHT22;3869;48.406;10.774;2023-04-25T06:35:28;9.40;99.90
7654;DHT22;3869;48.406;10.774;2023-04-25T06:37:56;9.40;99.90
7654;DHT22;3869;48.406;10.774;2023-04-25T06:40:24;9.40;99.90
7654;DHT22;3869;48.406;10.774;2023-04-25T06:42:52;9.30;99.90
7654;DHT22;3869;48.406;10.774;2023-04-25T06:45:20;9.30;99.90
7654;DHT22;3869;48.406;10.774;2023-04-25T06:47:48;9.30;99.90
7654;DHT22;3869;48.406;10.774;2023-04-25T06:50:17;9.40;99.90
7654;DHT22;3869;48.406;10.774;2023-04-25T06:52:45;9.40;99.90
7654;DHT22;3869;48.406;10.774;2023-04-25T06:55:13;9.50;99.90
7654;DHT22;3869;48.406;10.774;2023-04-25T06:57:41;9.50;99.90
7654;DHT22;3869;48.406;10.774;2023-04-25T07:00:10;9.50;99.90
7654;DHT22;3869;48.406;10.774;2023-04-25T07:02:38;9.50;99.90
7654;DHT22;3869;48.406;10.774;2023-04-25T07:05:07;9.60;99.90
7654;DHT22;3869;48.406;10.774;2023-04-25T07:07:36;9.60;99.90
7654;DHT22;3869;48.406;10.774;2023-04-25T07:10:05;9.70;99.90
7654;DHT22;3869;48.406;10.774;2023-04-25T07:12:33;9.80;99.90
7654;DHT22;3869;48.406;10.774;2023-04-25T07:15:01;9.80;99.90
7654;DHT22;3869;48.406;10.774;2023-04-25T07:17:32;9.80;99.90
7654;DHT22;3869;48.406;10.774;2023-04-25T07:20:01;9.70;99.90
7654;DHT22;3869;48.406;10.774;2023-04-25T07:22:30;9.80;99.90
7654;DHT22;3869;48.406;10.774;2023-04-25T07:24:59;9.80;99.90
7654;DHT22;3869;48.406;10.774;2023-04-25T07:27:27;9.80;99.90
7654;DHT22;3869;48.406;10.774;2023-04-25T07:29:55;9.90;99.90
7654;DHT22;3869;48.406;10.774;2023-04-25T07:32:24;10.00;99.90
7654;DHT22;3869;48.406;10.774;2023-04-25T07:34:52;10.10;99.90
7654;DHT22;3869;48.406;10.774;2023-04-25T07:37:20;10.20;99.90
7654;DHT22;3869;48.406;10.774;2023-04-25T07:39:48;10.40;99.90
7654;DHT22;3869;48.406;10.774;2023-04-25T07:42:17;10.50;99.90
7654;DHT22;3869;48.406;10.774;2023-04-25T07:44:46;10.50;99.90
7654;DHT22;3869;48.406;10.774;2023-04-25T07:47:14;10.50;99.90
7654;DHT22;3869;48.406;10.774;2023-04-25T07:49:42;10.50;99.90
7654;DHT22;3869;48.406;10.774;2023-04-25T07:52:10;10.40;99.90
7654;DHT22;3869;48.406;10.774;2023-04-25T07:54:37;10.40;99.90
7654;DHT22;3869;48.406;10.774;2023-04-25T07:57:06;10.50;99.90
7654;DHT22;3869;48.406;10.774;2023-04-25T07:59:35;10.60;99.90
7654;DHT22;3869;48.406;10.774;2023-04-25T08:02:03;10.70;99.90
7654;DHT22;3869;48.406;10.774;2023-04-25T08:04:31;10.80;99.90
7654;DHT22;3869;48.406;10.774;2023-04-25T08:06:59;10.90;99.90
7654;DHT22;3869;48.406;10.774;2023-04-25T08:09:27;11.00;99.90
7654;DHT22;3869;48.406;10.774;2023-04-25T08:11:55;11.10;99.90
7654;DHT22;3869;48.406;10.774;2023-04-25T08:14:23;11.10;99.90
7654;DHT22;3869;48.406;10.774;2023-04-25T08:16:53;11.00;99.90
7654;DHT22;3869;48.406;10.774;2023-04-25T08:19:20;11.00;99.90
7654;DHT22;3869;48.406;10.774;2023-04-25T08:21:48;10.90;99.90
7654;DHT22;3869;48.406;10.774;2023-04-25T08:24:18;11.00;99.90
7654;DHT22;3869;48.406;10.774;2023-04-25T08:26:46;11.10;99.90
7654;DHT22;3869;48.406;10.774;2023-04-25T08:29:14;11.30;99.90
7654;DHT22;3869;48.406;10.774;2023-04-25T08:31:42;11.40;99.90
7654;DHT22;3869;48.406;10.774;2023-04-25T08:34:11;11.60;99.90
7654;DHT22;3869;48.406;10.774;2023-04-25T08:36:39;11.80;99.90
7654;DHT22;3869;48.406;10.774;2023-04-25T08:39:07;11.90;99.90
7654;DHT22;3869;48.406;10.774;2023-04-25T08:41:36;11.90;99.90
7654;DHT22;3869;48.406;10.774;2023-04-25T08:44:05;11.90;99.90
7654;DHT22;3869;48.406;10.774;2023-04-25T08:46:34;11.90;99.90
7654;DHT22;3869;48.406;10.774;2023-04-25T08:49:02;11.80;99.90
7654;DHT22;3869;48.406;10.774;2023-04-25T08:51:32;11.70;99.90
7654;DHT22;3869;48.406;10.774;2023-04-25T08:54:09;11.70;99.90
7654;DHT22;3869;48.406;10.774;2023-04-25T08:56:59;11.60;99.90
7654;DHT22;3869;48.406;10.774;2023-04-25T08:59:28;11.60;99.90
7654;DHT22;3869;48.406;10.774;2023-04-25T09:01:57;11.70;99.90
7654;DHT22;3869;48.406;10.774;2023-04-25T09:04:25;11.80;99.90
7654;DHT22;3869;48.406;10.774;2023-04-25T09:06:54;11.90;99.90
7654;DHT22;3869;48.406;10.774;2023-04-25T09:09:23;12.00;99.90
7654;DHT22;3869;48.406;10.774;2023-04-25T09:11:54;12.10;99.90
7654;DHT22;3869;48.406;10.774;2023-04-25T09:14:23;12.00;99.90
7654;DHT22;3869;48.406;10.774;2023-04-25T09:17:00;12.00;99.90
7654;DHT22;3869;48.406;10.774;2023-04-25T09:19:29;11.90;99.90
7654;DHT22;3869;48.406;10.774;2023-04-25T09:22:08;11.90;99.90
7654;DHT22;3869;48.406;10.774;2023-04-25T09:24:37;11.80;99.90
7654;DHT22;3869;48.406;10.774;2023-04-25T09:27:06;11.50;99.90
7654;DHT22;3869;48.406;10.774;2023-04-25T09:29:35;11.40;99.90
7654;DHT22;3869;48.406;10.774;2023-04-25T09:32:19;11.20;99.90
7654;DHT22;3869;48.406;10.774;2023-04-25T09:34:48;10.80;99.90
7654;DHT22;3869;48.406;10.774;2023-04-25T09:37:19;10.30;99.90
7654;DHT22;3869;48.406;10.774;2023-04-25T09:39:49;9.80;99.90
7654;DHT22;3869;48.406;10.774;2023-04-25T09:42:18;9.50;99.90
7654;DHT22;3869;48.406;10.774;2023-04-25T09:44:49;9.60;99.90
7654;DHT22;3869;48.406;10.774;2023-04-25T09:47:19;9.60;99.90
7654;DHT22;3869;48.406;10.774;2023-04-25T09:49:48;9.70;99.90
7654;DHT22;3869;48.406;10.774;2023-04-25T09:52:19;9.60;99.90
7654;DHT22;3869;48.406;10.774;2023-04-25T09:54:51;9.20;99.90
7654;DHT22;3869;48.406;10.774;2023-04-25T09:57:22;9.00;99.90
7654;DHT22;3869;48.406;10.774;2023-04-25T09:59:51;8.80;99.90
7654;DHT22;3869;48.406;10.774;2023-04-25T10:02:20;8.60;99.90
7654;DHT22;3869;48.406;10.774;2023-04-25T10:04:49;8.60;99.90
7654;DHT22;3869;48.406;10.774;2023-04-25T10:07:24;8.50;99.90
7654;DHT22;3869;48.406;10.774;2023-04-25T10:09:58;8.40;99.90
7654;DHT22;3869;48.406;10.774;2023-04-25T10:12:27;8.40;99.90
7654;DHT22;3869;48.406;10.774;2023-04-25T10:14:55;8.40;99.90
7654;DHT22;3869;48.406;10.774;2023-04-25T10:17:23;8.50;99.90
7654;DHT22;3869;48.406;10.774;2023-04-25T10:19:52;8.60;99.90
7654;DHT22;3869;48.406;10.774;2023-04-25T10:22:26;8.60;99.90
7654;DHT22;3869;48.406;10.774;2023-04-25T10:24:57;8.60;99.90
7654;DHT22;3869;48.406;10.774;2023-04-25T10:27:27;8.60;99.90
7654;DHT22;3869;48.406;10.774;2023-04-25T10:30:01;8.60;99.90
7654;DHT22;3869;48.406;10.774;2023-04-25T10:32:31;8.60;99.90
7654;DHT22;3869;48.406;10.774;2023-04-25T10:35:10;8.60;99.90
7654;DHT22;3869;48.406;10.774;2023-04-25T10:37:56;8.60;99.90
7654;DHT22;3869;48.406;10.774;2023-04-25T10:40:25;8.70;99.90
7654;DHT22;3869;48.406;10.774;2023-04-25T10:42:53;8.80;99.90
7654;DHT22;3869;48.406;10.774;2023-04-25T10:45:22;9.00;99.90
7654;DHT22;3869;48.406;10.774;2023-04-25T10:47:50;9.20;99.90
7654;DHT22;3869;48.406;10.774;2023-04-25T10:50:18;9.50;99.90
7654;DHT22;3869;48.406;10.774;2023-04-25T10:52:47;9.60;99.90
7654;DHT22;3869;48.406;10.774;2023-04-25T10:55:15;9.80;99.90
7654;DHT22;3869;48.406;10.774;2023-04-25T10:57:44;10.00;99.90
7654;DHT22;3869;48.406;10.774;2023-04-25T11:00:16;10.10;99.90
7654;DHT22;3869;48.406;10.774;2023-04-25T11:02:46;10.30;99.90
7654;DHT22;3869;48.406;10.774;2023-04-25T11:05:24;10.40;99.90
7654;DHT22;3869;48.406;10.774;2023-04-25T11:07:58;10.40;99.90
7654;DHT22;3869;48.406;10.774;2023-04-25T11:10:34;10.50;99.90
7654;DHT22;3869;48.406;10.774;2023-04-25T11:13:04;10.70;99.90
7654;DHT22;3869;48.406;10.774;2023-04-25T11:15:32;10.70;99.90
7654;DHT22;3869;48.406;10.774;2023-04-25T11:18:00;10.70;99.90
7654;DHT22;3869;48.406;10.774;2023-04-25T11:20:28;10.70;99.90
7654;DHT22;3869;48.406;10.774;2023-04-25T11:22:58;10.80;99.90
7654;DHT22;3869;48.406;10.774;2023-04-25T11:25:28;10.80;99.90
7654;DHT22;3869;48.406;10.774;2023-04-25T11:27:58;10.80;99.90
7654;DHT22;3869;48.406;10.774;2023-04-25T11:30:27;10.60;99.90
7654;DHT22;3869;48.406;10.774;2023-04-25T11:32:57;10.60;99.90
7654;DHT22;3869;48.406;10.774;2023-04-25T11:35:25;10.50;99.90
7654;DHT22;3869;48.406;10.774;2023-04-25T11:37:53;10.40;99.90
7654;DHT22;3869;48.406;10.774;2023-04-25T11:40:23;10.20;99.90
7654;DHT22;3869;48.406;10.774;2023-04-25T11:42:51;10.00;99.90
7654;DHT22;3869;48.406;10.774;2023-04-25T11:45:22;9.90;99.90
7654;DHT22;3869;48.406;10.774;2023-04-25T11:47:51;9.80;99.90
7654;DHT22;3869;48.406;10.774;2023-04-25T11:50:20;9.70;99.90
7654;DHT22;3869;48.406;10.774;2023-04-25T11:52:48;9.60;99.90
7654;DHT22;3869;48.406;10.774;2023-04-25T11:55:18;9.50;99.90
7654;DHT22;3869;48.406;10.774;2023-04-25T11:57:48;9.30;99.90
7654;DHT22;3869;48.406;10.774;2023-04-25T12:00:18;9.30;99.90
7654;DHT22;3869;48.406;10.774;2023-04-25T12:02:52;9.20;99.90
7654;DHT22;3869;48.406;10.774;2023-04-25T12:05:24;9.00;99.90
7654;DHT22;3869;48.406;10.774;2023-04-25T12:08:10;8.90;99.90
7654;DHT22;3869;48.406;10.774;2023-04-25T12:10:40;8.80;99.90
7654;DHT22;3869;48.406;10.774;2023-04-25T12:13:20;8.80;99.90
7654;DHT22;3869;48.406;10.774;2023-04-25T12:15:49;8.80;99.90
7654;DHT22;3869;48.406;10.774;2023-04-25T12:18:19;8.70;99.90
7654;DHT22;3869;48.406;10.774;2023-04-25T12:20:48;8.50;99.90
7654;DHT22;3869;48.406;10.774;2023-04-25T12:23:16;8.50;99.90
7654;DHT22;3869;48.406;10.774;2023-04-25T12:25:44;8.40;99.90
7654;DHT22;3869;48.406;10.774;2023-04-25T12:28:15;8.40;99.90
7654;DHT22;3869;48.406;10.774;2023-04-25T12:30:59;8.30;99.90
7654;DHT22;3869;48.406;10.774;2023-04-25T12:33:29;8.30;99.90
7654;DHT22;3869;48.406;10.774;2023-04-25T12:35:58;8.30;99.90
7654;DHT22;3869;48.406;10.774;2023-04-25T12:38:28;8.30;99.90
7654;DHT22;3869;48.406;10.774;2023-04-25T12:40:57;8.20;99.90
7654;DHT22;3869;48.406;10.774;2023-04-25T12:43:25;8.20;99.90
7654;DHT22;3869;48.406;10.774;2023-04-25T12:45:54;8.20;99.90
7654;DHT22;3869;48.406;10.774;2023-04-25T12:48:24;8.30;99.90
7654;DHT22;3869;48.406;10.774;2023-04-25T12:50:52;8.30;99.90
7654;DHT22;3869;48.406;10.774;2023-04-25T12:53:21;8.40;99.90
7654;DHT22;3869;48.406;10.774;2023-04-25T12:55:50;8.30;99.90
7654;DHT22;3869;48.406;10.774;2023-04-25T12:58:19;8.50;99.90
7654;DHT22;3869;48.406;10.774;2023-04-25T13:00:47;8.60;99.90
7654;DHT22;3869;48.406;10.774;2023-04-25T13:03:15;8.70;99.90
7654;DHT22;3869;48.406;10.774;2023-04-25T13:05:46;8.80;99.90
7654;DHT22;3869;48.406;10.774;2023-04-25T13:08:14;8.90;99.90
7654;DHT22;3869;48.406;10.774;2023-04-25T13:10:42;9.10;99.90
7654;DHT22;3869;48.406;10.774;2023-04-25T13:13:10;9.20;99.90
7654;DHT22;3869;48.406;10.774;2023-04-25T13:15:37;9.30;99.90
7654;DHT22;3869;48.406;10.774;2023-04-25T13:18:05;9.40;99.90
7654;DHT22;3869;48.406;10.774;2023-04-25T13:20:33;9.50;99.90
7654;DHT22;3869;48.406;10.774;2023-04-25T13:23:03;9.50;99.90
7654;DHT22;3869;48.406;10.774;2023-04-25T13:25:31;9.50;99.90
7654;DHT22;3869;48.406;10.774;2023-04-25T13:27:58;9.50;99.90
7654;DHT22;3869;48.406;10.774;2023-04-25T13:30:26;9.50;99.90
7654;DHT22;3869;48.406;10.774;2023-04-25T13:32:54;9.50;99.90
7654;DHT22;3869;48.406;10.774;2023-04-25T13:35:24;9.50;99.90
7654;DHT22;3869;48.406;10.774;2023-04-25T13:37:52;9.50;99.90
7654;DHT22;3869;48.406;10.774;2023-04-25T13:40:21;9.50;99.90
7654;DHT22;3869;48.406;10.774;2023-04-25T13:42:51;9.40;99.90
7654;DHT22;3869;48.406;10.774;2023-04-25T13:45:19;9.30;99.90
7654;DHT22;3869;48.406;10.774;2023-04-25T13:47:47;9.20;99.90
7654;DHT22;3869;48.406;10.774;2023-04-25T13:50:15;9.10;99.90
7654;DHT22;3869;48.406;10.774;2023-04-25T13:52:43;9.00;99.90
7654;DHT22;3869;48.406;10.774;2023-04-25T13:55:11;8.90;99.90
7654;DHT22;3869;48.406;10.774;2023-04-25T13:57:41;8.80;99.90
7654;DHT22;3869;48.406;10.774;2023-04-25T14:00:10;8.80;99.90
7654;DHT22;3869;48.406;10.774;2023-04-25T14:02:38;8.60;99.90
7654;DHT22;3869;48.406;10.774;2023-04-25T14:05:07;8.50;99.90
7654;DHT22;3869;48.406;10.774;2023-04-25T14:07:36;8.40;99.90
7654;DHT22;3869;48.406;10.774;2023-04-25T14:10:04;8.40;99.90
7654;DHT22;3869;48.406;10.774;2023-04-25T14:12:33;8.40;99.90
7654;DHT22;3869;48.406;10.774;2023-04-25T14:15:03;8.50;99.90
7654;DHT22;3869;48.406;10.774;2023-04-25T14:17:31;8.50;99.90
7654;DHT22;3869;48.406;10.774;2023-04-25T14:19:59;8.40;99.90
7654;DHT22;3869;48.406;10.774;2023-04-25T14:22:27;8.50;99.90
7654;DHT22;3869;48.406;10.774;2023-04-25T14:24:55;8.70;99.90
7654;DHT22;3869;48.406;10.774;2023-04-25T14:27:23;8.80;99.90
7654;DHT22;3869;48.406;10.774;2023-04-25T14:29:54;8.90;99.90
7654;DHT22;3869;48.406;10.774;2023-04-25T14:32:24;8.90;99.90
7654;DHT22;3869;48.406;10.774;2023-04-25T14:34:52;9.00;99.90
7654;DHT22;3869;48.406;10.774;2023-04-25T14:37:20;9.00;99.90
7654;DHT22;3869;48.406;10.774;2023-04-25T14:39:48;8.90;99.90
7654;DHT22;3869;48.406;10.774;2023-04-25T14:42:16;8.80;99.90
7654;DHT22;3869;48.406;10.774;2023-04-25T14:44:44;8.80;99.90
7654;DHT22;3869;48.406;10.774;2023-04-25T14:47:12;8.80;99.90
7654;DHT22;3869;48.406;10.774;2023-04-25T14:49:41;8.90;99.90
7654;DHT22;3869;48.406;10.774;2023-04-25T14:52:09;8.90;99.90
7654;DHT22;3869;48.406;10.774;2023-04-25T14:54:37;8.80;99.90
7654;DHT22;3869;48.406;10.774;2023-04-25T14:57:05;8.80;99.90
7654;DHT22;3869;48.406;10.774;2023-04-25T14:59:33;8.80;99.90
7654;DHT22;3869;48.406;10.774;2023-04-25T15:02:00;8.90;99.90
7654;DHT22;3869;48.406;10.774;2023-04-25T15:04:29;9.00;99.90
7654;DHT22;3869;48.406;10.774;2023-04-25T15:06:59;9.20;99.90
7654;DHT22;3869;48.406;10.774;2023-04-25T15:09:27;9.30;99.90
7654;DHT22;3869;48.406;10.774;2023-04-25T15:11:55;9.40;99.90
7654;DHT22;3869;48.406;10.774;2023-04-25T15:14:24;9.40;99.90
7654;DHT22;3869;48.406;10.774;2023-04-25T15:16:52;9.40;99.90
7654;DHT22;3869;48.406;10.774;2023-04-25T15:19:20;9.40;99.90
7654;DHT22;3869;48.406;10.774;2023-04-25T15:21:48;9.50;99.90
7654;DHT22;3869;48.406;10.774;2023-04-25T15:24:17;9.60;99.90
7654;DHT22;3869;48.406;10.774;2023-04-25T15:26:45;9.70;99.90
7654;DHT22;3869;48.406;10.774;2023-04-25T15:29:13;9.70;99.90
7654;DHT22;3869;48.406;10.774;2023-04-25T15:31:42;9.80;99.90
7654;DHT22;3869;48.406;10.774;2023-04-25T15:34:10;9.80;99.90
7654;DHT22;3869;48.406;10.774;2023-04-25T15:36:38;9.90;99.90
7654;DHT22;3869;48.406;10.774;2023-04-25T15:39:06;10.00;99.90
7654;DHT22;3869;48.406;10.774;2023-04-25T15:41:35;10.00;99.90
7654;DHT22;3869;48.406;10.774;2023-04-25T15:44:03;10.10;99.90
7654;DHT22;3869;48.406;10.774;2023-04-25T15:46:33;10.20;99.90
7654;DHT22;3869;48.406;10.774;2023-04-25T15:49:01;10.30;99.90
7654;DHT22;3869;48.406;10.774;2023-04-25T15:51:29;10.40;99.90
7654;DHT22;3869;48.406;10.774;2023-04-25T15:53:57;10.40;99.90
7654;DHT22;3869;48.406;10.774;2023-04-25T15:56:25;10.30;99.90
7654;DHT22;3869;48.406;10.774;2023-04-25T15:58:54;10.30;99.90
7654;DHT22;3869;48.406;10.774;2023-04-25T16:01:22;10.20;99.90
7654;DHT22;3869;48.406;10.774;2023-04-25T16:03:51;10.20;99.90
7654;DHT22;3869;48.406;10.774;2023-04-25T16:06:20;10.20;99.90
7654;DHT22;3869;48.406;10.774;2023-04-25T16:08:48;10.20;99.90